createdAt,value
2017-09-24T00:00:30.742Z,13.40
2017-09-24T00:02:59.047Z,13.50
2017-09-24T00:05:27.371Z,13.50
2017-09-24T00:07:55.678Z,13.50
2017-09-24T00:10:23.985Z,13.50
2017-09-24T00:12:52.566Z,13.50
2017-09-24T00:15:20.846Z,13.40
2017-09-24T00:17:49.191Z,13.40
2017-09-24T00:20:17.594Z,13.50
2017-09-24T00:22:45.895Z,13.50
2017-09-24T00:25:14.174Z,13.50
2017-09-24T00:27:42.479Z,13.50
2017-09-24T00:30:10.754Z,13.50
2017-09-24T00:32:39.838Z,13.60
2017-09-24T00:35:09.201Z,13.50
2017-09-24T00:37:37.964Z,13.60
2017-09-24T00:40:06.339Z,13.60
2017-09-24T00:42:34.848Z,13.60
2017-09-24T00:45:03.154Z,13.60
2017-09-24T00:47:31.466Z,13.60
2017-09-24T00:49:59.742Z,13.70
2017-09-24T00:52:28.051Z,13.70
2017-09-24T00:54:56.487Z,13.70
2017-09-24T00:57:24.768Z,13.70
2017-09-24T00:59:53.054Z,13.70
2017-09-24T01:02:21.383Z,13.60
2017-09-24T01:04:49.666Z,13.60
2017-09-24T01:07:17.979Z,13.60
2017-09-24T01:09:46.259Z,13.70
2017-09-24T01:12:14.591Z,13.70
2017-09-24T01:14:42.898Z,13.70
2017-09-24T01:17:11.175Z,13.70
2017-09-24T01:19:39.525Z,13.70
2017-09-24T01:22:08.611Z,13.70
2017-09-24T01:24:37.082Z,13.70
2017-09-24T01:27:05.399Z,13.70
2017-09-24T01:29:33.725Z,13.70
2017-09-24T01:32:02.126Z,13.70
2017-09-24T01:34:30.406Z,13.70
2017-09-24T01:36:58.724Z,13.80
2017-09-24T01:39:27.002Z,13.70
2017-09-24T01:41:55.314Z,13.80
2017-09-24T01:44:23.598Z,13.70
2017-09-24T01:46:51.946Z,13.80
2017-09-24T01:49:20.245Z,13.80
2017-09-24T01:51:48.675Z,13.80
2017-09-24T01:54:16.958Z,13.80
2017-09-24T01:56:45.258Z,13.80
2017-09-24T01:59:13.575Z,13.80
2017-09-24T02:01:41.959Z,13.80
2017-09-24T02:04:10.250Z,13.90
2017-09-24T02:06:38.770Z,13.80
2017-09-24T02:09:07.059Z,13.80
2017-09-24T02:11:35.407Z,13.80
2017-09-24T02:14:04.931Z,13.90
2017-09-24T02:16:34.019Z,13.90
2017-09-24T02:19:02.322Z,13.90
2017-09-24T02:21:30.647Z,13.80
2017-09-24T02:23:59.015Z,13.80
2017-09-24T02:26:27.322Z,13.90
2017-09-24T02:28:55.726Z,14.00
2017-09-24T02:31:25.070Z,13.90
2017-09-24T02:33:53.354Z,13.90
2017-09-24T02:36:21.677Z,13.90
2017-09-24T02:38:51.495Z,14.00
2017-09-24T02:41:19.803Z,14.00
2017-09-24T02:43:48.119Z,14.00
2017-09-24T02:46:16.411Z,14.10
2017-09-24T02:48:44.759Z,14.00
2017-09-24T02:51:13.055Z,14.10
2017-09-24T02:53:42.115Z,14.00
2017-09-24T02:56:10.434Z,14.00
2017-09-24T02:58:38.723Z,14.10
2017-09-24T03:01:07.066Z,14.10
2017-09-24T03:03:35.434Z,14.10
2017-09-24T03:06:03.769Z,14.10
2017-09-24T03:08:32.150Z,14.10
2017-09-24T03:11:00.542Z,14.00
2017-09-24T03:13:28.830Z,14.10
2017-09-24T03:15:57.359Z,14.10
2017-09-24T03:18:25.654Z,14.10
2017-09-24T03:20:53.946Z,14.20
2017-09-24T03:23:22.274Z,14.10
2017-09-24T03:25:50.619Z,14.10
2017-09-24T03:28:18.966Z,14.10
2017-09-24T03:30:47.262Z,14.20
2017-09-24T03:33:15.574Z,14.20
2017-09-24T03:35:43.979Z,14.20
2017-09-24T03:38:12.274Z,14.20
2017-09-24T03:40:40.603Z,14.20
2017-09-24T03:43:08.921Z,14.10
2017-09-24T03:45:37.983Z,14.20
2017-09-24T03:48:06.430Z,14.20
2017-09-24T03:50:34.787Z,14.30
2017-09-24T03:55:30.988Z,14.30
2017-09-24T03:57:59.306Z,14.20
2017-09-24T04:00:27.708Z,14.20
2017-09-24T04:02:56.006Z,14.20
2017-09-24T04:05:24.330Z,14.20
2017-09-24T04:07:52.748Z,14.20
2017-09-24T04:10:21.867Z,14.20
2017-09-24T04:12:50.932Z,14.20
2017-09-24T04:15:19.366Z,14.20
2017-09-24T04:17:47.671Z,14.20
2017-09-24T04:20:15.968Z,14.20
2017-09-24T04:22:44.370Z,14.30
2017-09-24T04:25:12.658Z,14.30
2017-09-24T04:27:40.991Z,14.30
2017-09-24T04:30:09.412Z,14.30
2017-09-24T04:32:38.592Z,14.40
2017-09-24T04:35:06.951Z,14.40
2017-09-24T04:37:36.066Z,14.40
2017-09-24T04:40:05.663Z,14.40
2017-09-24T04:42:34.207Z,14.40
2017-09-24T04:45:02.538Z,14.40
2017-09-24T04:47:30.966Z,14.40
2017-09-24T04:49:59.259Z,14.40
2017-09-24T04:52:27.575Z,14.40
2017-09-24T04:54:56.175Z,14.40
2017-09-24T04:57:24.530Z,14.50
2017-09-24T04:59:53.624Z,14.50
2017-09-24T05:02:22.015Z,14.50
2017-09-24T05:04:50.315Z,14.50
2017-09-24T05:07:18.635Z,14.40
2017-09-24T05:09:47.018Z,14.40
2017-09-24T05:12:15.423Z,14.40
2017-09-24T05:14:43.759Z,14.40
2017-09-24T05:17:12.851Z,14.40
2017-09-24T05:19:41.147Z,14.40
2017-09-24T05:22:09.459Z,14.40
2017-09-24T05:24:37.795Z,14.50
2017-09-24T05:27:06.214Z,14.50
2017-09-24T05:29:34.795Z,14.50
2017-09-24T05:32:04.080Z,14.40
2017-09-24T05:34:32.366Z,14.40
2017-09-24T05:37:00.694Z,14.50
2017-09-24T05:39:29.018Z,14.50
2017-09-24T05:41:57.339Z,14.50
2017-09-24T05:44:26.404Z,14.50
2017-09-24T05:46:54.718Z,14.50
2017-09-24T05:49:23.123Z,14.50
2017-09-24T05:51:51.532Z,14.50
2017-09-24T05:54:19.816Z,14.50
2017-09-24T05:56:48.127Z,14.50
2017-09-24T05:59:16.636Z,14.50
2017-09-24T06:01:44.931Z,14.40
2017-09-24T06:04:13.217Z,14.40
2017-09-24T06:06:41.554Z,14.40
2017-09-24T06:09:11.356Z,14.40
2017-09-24T06:11:39.651Z,14.40
2017-09-24T06:14:08.111Z,14.40
2017-09-24T06:16:36.578Z,14.40
2017-09-24T06:19:05.787Z,14.40
2017-09-24T06:21:34.159Z,14.40
2017-09-24T06:24:02.455Z,14.30
2017-09-24T06:26:31.635Z,14.30
2017-09-24T06:28:59.928Z,14.20
2017-09-24T06:31:28.219Z,14.10
2017-09-24T06:33:56.544Z,14.10
2017-09-24T06:36:25.039Z,14.20
2017-09-24T06:38:53.465Z,14.10
2017-09-24T06:41:21.851Z,14.10
2017-09-24T06:43:50.149Z,14.20
2017-09-24T06:46:18.470Z,14.10
2017-09-24T06:48:46.766Z,14.20
2017-09-24T06:51:15.086Z,14.20
2017-09-24T06:53:43.410Z,14.20
2017-09-24T06:56:12.590Z,14.20
2017-09-24T06:58:40.934Z,14.10
2017-09-24T07:01:10.008Z,14.10
2017-09-24T07:03:38.422Z,14.20
2017-09-24T07:06:06.970Z,14.10
2017-09-24T07:08:36.213Z,14.20
2017-09-24T07:11:04.623Z,14.10
2017-09-24T07:13:32.950Z,14.20
2017-09-24T07:16:01.269Z,14.30
2017-09-24T07:18:29.558Z,14.20
2017-09-24T07:20:57.890Z,14.30
2017-09-24T07:23:26.979Z,14.20
2017-09-24T07:25:55.306Z,14.20
2017-09-24T07:28:23.639Z,14.30
2017-09-24T07:30:52.077Z,14.30
2017-09-24T07:33:20.369Z,14.40
2017-09-24T07:35:48.798Z,14.50
2017-09-24T07:38:17.126Z,14.40
2017-09-24T07:40:46.220Z,14.60
2017-09-24T07:43:14.515Z,14.60
2017-09-24T07:45:43.065Z,14.60
2017-09-24T07:48:12.290Z,14.70
2017-09-24T07:50:41.386Z,14.70
2017-09-24T07:53:09.864Z,14.70
2017-09-24T07:55:40.014Z,14.70
2017-09-24T07:58:08.585Z,14.70
2017-09-24T08:00:36.959Z,14.80
2017-09-24T08:03:05.352Z,14.80
2017-09-24T08:05:33.714Z,14.80
2017-09-24T08:08:02.034Z,14.70
2017-09-24T08:10:30.745Z,14.60
2017-09-24T08:12:59.354Z,14.70
2017-09-24T08:15:27.668Z,14.60
2017-09-24T08:17:56.071Z,14.60
2017-09-24T08:20:24.395Z,14.60
2017-09-24T08:22:52.695Z,14.60
2017-09-24T08:25:21.042Z,14.70
2017-09-24T08:27:49.383Z,14.70
2017-09-24T08:30:17.819Z,14.70
2017-09-24T08:32:46.199Z,14.70
2017-09-24T08:35:14.492Z,14.70
2017-09-24T08:37:42.814Z,14.70
2017-09-24T08:40:11.867Z,14.60
2017-09-24T08:42:40.191Z,14.60
2017-09-24T08:45:08.555Z,14.60
2017-09-24T08:47:37.697Z,14.60
2017-09-24T08:50:07.015Z,14.60
2017-09-24T08:52:35.472Z,14.80
2017-09-24T08:55:05.765Z,14.70
2017-09-24T08:57:34.175Z,14.70
2017-09-24T09:00:02.519Z,14.70
2017-09-24T09:02:30.850Z,14.70
2017-09-24T09:04:59.138Z,14.70
2017-09-24T09:07:27.432Z,14.70
2017-09-24T09:09:55.851Z,14.60
2017-09-24T09:12:24.182Z,14.60
2017-09-24T09:14:53.244Z,14.40
2017-09-24T09:17:21.753Z,14.40
2017-09-24T09:19:50.278Z,14.50
2017-09-24T09:22:18.558Z,14.60
2017-09-24T09:24:46.890Z,14.60
2017-09-24T09:27:15.183Z,14.60
2017-09-24T09:29:43.473Z,14.70
2017-09-24T09:32:11.802Z,14.70
2017-09-24T09:34:40.221Z,14.60
2017-09-24T09:37:09.395Z,14.80
2017-09-24T09:39:37.735Z,14.80
2017-09-24T09:42:07.536Z,14.70
2017-09-24T09:44:52.391Z,14.80
2017-09-24T09:47:27.542Z,14.80
2017-09-24T09:49:56.653Z,14.90
2017-09-24T09:52:24.942Z,14.90
2017-09-24T09:54:53.424Z,14.90
2017-09-24T09:57:21.734Z,14.80
2017-09-24T09:59:50.059Z,15.00
2017-09-24T10:02:18.379Z,15.00
2017-09-24T10:04:47.468Z,15.10
2017-09-24T10:07:27.690Z,15.10
2017-09-24T10:10:08.028Z,15.10
2017-09-24T10:12:36.343Z,15.10
2017-09-24T10:15:04.651Z,15.10
2017-09-24T10:17:32.964Z,15.10
2017-09-24T10:20:02.019Z,15.00
2017-09-24T10:22:30.337Z,15.00
2017-09-24T10:24:58.626Z,15.10
2017-09-24T10:27:27.126Z,15.10
2017-09-24T10:30:07.367Z,15.10
2017-09-24T10:32:35.663Z,15.10
2017-09-24T10:35:04.007Z,15.10
2017-09-24T10:37:32.350Z,15.00
2017-09-24T10:40:01.474Z,15.00
2017-09-24T10:42:29.755Z,15.10
2017-09-24T10:44:58.043Z,15.10
2017-09-24T10:47:26.366Z,15.20
2017-09-24T10:49:54.863Z,15.20
2017-09-24T10:52:23.181Z,15.30
2017-09-24T10:54:51.526Z,15.30
2017-09-24T10:57:21.217Z,15.30
2017-09-24T10:59:49.823Z,15.30
2017-09-24T11:02:18.178Z,15.30
2017-09-24T11:04:47.351Z,15.30
2017-09-24T11:07:15.638Z,15.30
2017-09-24T11:09:43.971Z,15.40
2017-09-24T11:12:12.258Z,15.50
2017-09-24T11:14:40.543Z,15.40
2017-09-24T11:17:08.867Z,15.40
2017-09-24T11:19:37.168Z,15.50
2017-09-24T11:22:06.273Z,15.30
2017-09-24T11:24:34.614Z,15.30
2017-09-24T11:27:02.898Z,15.40
2017-09-24T11:29:31.226Z,15.50
2017-09-24T11:32:00.278Z,15.70
2017-09-24T11:34:28.705Z,15.70
2017-09-24T11:36:57.003Z,15.70
2017-09-24T11:39:25.314Z,15.80
2017-09-24T11:41:53.720Z,15.80
2017-09-24T11:44:22.042Z,15.80
2017-09-24T11:46:51.891Z,15.80
2017-09-24T11:49:20.951Z,15.80
2017-09-24T11:51:49.272Z,15.80
2017-09-24T11:54:17.578Z,15.80
2017-09-24T11:56:45.887Z,15.80
2017-09-24T11:59:14.214Z,15.90
2017-09-24T12:01:42.534Z,16.00
2017-09-24T12:04:11.623Z,16.20
2017-09-24T12:06:40.734Z,16.40
2017-09-24T12:09:09.026Z,16.40
2017-09-24T12:11:37.442Z,16.50
2017-09-24T12:14:05.739Z,16.60
2017-09-24T12:16:34.159Z,16.70
2017-09-24T12:19:03.835Z,16.80
2017-09-24T12:21:32.152Z,16.80
2017-09-24T12:24:00.466Z,16.80
2017-09-24T12:26:28.755Z,16.70
2017-09-24T12:28:57.078Z,16.70
2017-09-24T12:31:25.402Z,16.90
2017-09-24T12:33:53.762Z,16.90
2017-09-24T12:36:22.091Z,16.70
2017-09-24T12:38:50.420Z,16.70
2017-09-24T12:41:18.711Z,16.70
2017-09-24T12:43:48.508Z,16.70
2017-09-24T12:46:16.843Z,16.70
2017-09-24T12:48:45.127Z,16.70
2017-09-24T12:51:13.419Z,16.80
2017-09-24T12:53:41.739Z,16.80
2017-09-24T12:56:10.064Z,16.70
2017-09-24T12:58:39.877Z,16.80
2017-09-24T13:01:08.174Z,16.80
2017-09-24T13:03:36.687Z,16.80
2017-09-24T13:06:05.119Z,16.90
2017-09-24T13:08:34.715Z,17.10
2017-09-24T13:11:03.146Z,17.10
2017-09-24T13:13:31.527Z,17.30
2017-09-24T13:16:00.550Z,17.40
2017-09-24T13:18:28.842Z,17.50
2017-09-24T13:20:58.051Z,17.60
2017-09-24T13:23:26.568Z,17.60
2017-09-24T13:25:54.898Z,17.50
2017-09-24T13:28:23.277Z,17.50
2017-09-24T13:30:51.588Z,17.50
2017-09-24T13:33:20.090Z,17.60
2017-09-24T13:35:48.379Z,17.60
2017-09-24T13:38:16.804Z,17.60
2017-09-24T13:40:45.202Z,17.50
2017-09-24T13:43:13.501Z,17.50
2017-09-24T13:45:41.822Z,17.60
2017-09-24T13:48:11.648Z,17.70
2017-09-24T13:50:40.151Z,17.70
2017-09-24T13:53:09.448Z,17.90
2017-09-24T13:55:37.782Z,18.00
2017-09-24T13:58:06.108Z,18.10
2017-09-24T14:00:35.401Z,18.10
2017-09-24T14:03:03.719Z,18.30
2017-09-24T14:05:32.038Z,18.50
2017-09-24T14:08:00.427Z,18.60
2017-09-24T14:10:28.734Z,18.60
2017-09-24T14:12:57.022Z,18.50
2017-09-24T14:15:25.342Z,18.40
2017-09-24T14:17:53.726Z,18.20
2017-09-24T14:20:22.042Z,18.10
2017-09-24T14:22:50.335Z,18.10
2017-09-24T14:25:18.736Z,18.20
2017-09-24T14:27:47.139Z,18.30
2017-09-24T14:30:15.459Z,18.50
2017-09-24T14:32:43.827Z,18.50
2017-09-24T14:35:13.658Z,18.50
2017-09-24T14:37:41.975Z,18.50
2017-09-24T14:40:10.391Z,18.50
2017-09-24T14:42:38.675Z,18.40
2017-09-24T14:45:07.111Z,18.40
2017-09-24T14:47:36.910Z,18.30
2017-09-24T14:50:05.227Z,18.30
2017-09-24T14:52:33.683Z,18.30
2017-09-24T14:55:02.735Z,18.50
2017-09-24T14:57:31.054Z,18.50
2017-09-24T14:59:59.491Z,18.70
2017-09-24T15:02:27.867Z,18.70
2017-09-24T15:04:56.181Z,18.70
2017-09-24T15:07:25.979Z,18.60
2017-09-24T15:09:54.306Z,18.50
2017-09-24T15:12:22.603Z,18.40
2017-09-24T15:14:50.943Z,18.30
2017-09-24T15:17:20.004Z,18.10
2017-09-24T15:19:48.335Z,18.10
2017-09-24T15:22:16.647Z,18.10
2017-09-24T15:24:44.935Z,18.00
2017-09-24T15:27:13.263Z,17.90
2017-09-24T15:29:41.582Z,17.90
2017-09-24T15:32:10.779Z,17.80
2017-09-24T15:34:39.067Z,17.80
2017-09-24T15:37:07.474Z,17.70
2017-09-24T15:39:35.826Z,17.70
2017-09-24T15:42:04.157Z,17.70
2017-09-24T15:44:32.512Z,17.50
2017-09-24T15:47:00.815Z,17.50
2017-09-24T15:49:29.894Z,17.50
2017-09-24T15:51:58.402Z,17.50
2017-09-24T15:54:26.703Z,17.50
2017-09-24T15:56:54.986Z,17.40
2017-09-24T15:59:23.406Z,17.50
2017-09-24T16:01:51.822Z,17.40
2017-09-24T16:04:20.124Z,17.40
2017-09-24T16:06:48.414Z,17.40
2017-09-24T16:09:16.726Z,17.20
2017-09-24T16:11:45.023Z,17.20
2017-09-24T16:14:13.334Z,17.20
2017-09-24T16:16:41.647Z,17.10
2017-09-24T16:19:09.940Z,17.20
2017-09-24T16:21:38.257Z,17.20
2017-09-24T16:24:06.645Z,17.10
2017-09-24T16:26:36.471Z,17.00
2017-09-24T16:29:05.467Z,17.00
2017-09-24T16:31:34.192Z,17.00
2017-09-24T16:34:02.691Z,17.00
2017-09-24T16:36:30.980Z,17.00
2017-09-24T16:38:59.272Z,16.90
2017-09-24T16:41:27.590Z,16.90
2017-09-24T16:43:55.882Z,16.80
2017-09-24T16:46:24.219Z,16.80
2017-09-24T16:48:52.504Z,16.80
2017-09-24T16:51:20.820Z,16.80
2017-09-24T16:53:49.143Z,16.80
2017-09-24T16:56:17.430Z,16.80
2017-09-24T16:58:45.746Z,16.70
2017-09-24T17:01:14.066Z,16.70
2017-09-24T17:03:43.122Z,16.60
2017-09-24T17:06:11.450Z,16.60
2017-09-24T17:08:39.742Z,16.60
2017-09-24T17:11:08.039Z,16.60
2017-09-24T17:13:36.382Z,16.50
2017-09-24T17:16:05.560Z,16.50
2017-09-24T17:18:34.404Z,16.50
2017-09-24T17:21:02.726Z,16.60
2017-09-24T17:23:31.911Z,16.40
2017-09-24T17:26:00.232Z,16.40
2017-09-24T17:28:30.032Z,16.40
2017-09-24T17:30:58.347Z,16.40
2017-09-24T17:33:26.635Z,16.40
2017-09-24T17:35:54.964Z,16.40
2017-09-24T17:38:23.251Z,16.40
2017-09-24T17:40:51.699Z,16.40
2017-09-24T17:43:21.186Z,16.40
2017-09-24T17:45:49.471Z,16.40
2017-09-24T17:48:17.799Z,16.30
2017-09-24T17:50:46.081Z,16.30
2017-09-24T17:53:14.374Z,16.30
2017-09-24T17:55:42.901Z,16.20
2017-09-24T17:58:11.187Z,16.20
2017-09-24T18:00:39.614Z,16.30
2017-09-24T18:03:07.898Z,16.30
2017-09-24T18:05:36.227Z,16.20
2017-09-24T18:08:05.278Z,16.20
2017-09-24T18:10:34.451Z,16.10
2017-09-24T18:13:02.734Z,16.10
2017-09-24T18:15:31.050Z,16.10
2017-09-24T18:17:59.370Z,16.20
2017-09-24T18:20:27.763Z,16.20
2017-09-24T18:22:56.089Z,16.10
2017-09-24T18:25:24.402Z,16.20
2017-09-24T18:27:53.559Z,16.20
2017-09-24T18:30:21.858Z,16.20
2017-09-24T18:32:50.294Z,16.20
2017-09-24T18:35:18.602Z,16.20
2017-09-24T18:37:46.882Z,16.10
2017-09-24T18:40:15.203Z,16.20
2017-09-24T18:42:43.491Z,16.10
2017-09-24T18:45:11.823Z,16.20
2017-09-24T18:47:40.190Z,16.10
2017-09-24T18:50:08.711Z,16.10
2017-09-24T18:52:37.812Z,16.20
2017-09-24T18:55:06.197Z,16.20
2017-09-24T18:57:34.595Z,16.20
2017-09-24T19:00:02.936Z,16.10
2017-09-24T19:02:32.986Z,16.10
2017-09-24T19:05:01.295Z,16.10
2017-09-24T19:07:29.616Z,16.10
2017-09-24T19:09:57.990Z,16.10
2017-09-24T19:12:27.075Z,16.10
2017-09-24T19:14:55.471Z,16.10
2017-09-24T19:17:24.034Z,16.10
2017-09-24T19:19:52.370Z,16.10
2017-09-24T19:22:20.702Z,16.20
2017-09-24T19:24:49.022Z,16.20
2017-09-24T19:27:17.319Z,16.10
2017-09-24T19:29:45.634Z,16.10
2017-09-24T19:32:13.922Z,16.10
2017-09-24T19:34:42.238Z,16.20
2017-09-24T19:37:10.526Z,16.20
2017-09-24T19:39:38.886Z,16.20
2017-09-24T19:42:07.255Z,16.20
2017-09-24T19:44:35.548Z,16.10
2017-09-24T19:47:03.903Z,16.00
2017-09-24T19:49:32.237Z,15.90
2017-09-24T19:52:00.558Z,15.90
2017-09-24T19:54:28.971Z,15.90
2017-09-24T19:56:57.254Z,15.90
2017-09-24T19:59:25.543Z,15.90
2017-09-24T20:01:53.923Z,15.90
2017-09-24T20:04:22.482Z,15.90
2017-09-24T20:06:50.782Z,15.90
2017-09-24T20:09:19.071Z,15.90
2017-09-24T20:11:47.488Z,15.90
2017-09-24T20:14:15.806Z,15.80
2017-09-24T20:16:44.098Z,15.80
2017-09-24T20:19:12.707Z,15.80
2017-09-24T20:21:41.123Z,15.80
2017-09-24T20:24:09.458Z,15.70
2017-09-24T20:26:38.572Z,15.80
2017-09-24T20:29:09.183Z,15.80
2017-09-24T20:31:37.766Z,15.80
2017-09-24T20:34:06.266Z,15.80
2017-09-24T20:36:34.932Z,15.90
2017-09-24T20:39:05.051Z,15.80
2017-09-24T20:41:34.410Z,15.70
2017-09-24T20:44:02.891Z,15.70
2017-09-24T20:46:31.190Z,15.70
2017-09-24T20:48:59.468Z,15.70
2017-09-24T20:51:28.159Z,15.80
2017-09-24T20:53:56.555Z,15.70
2017-09-24T20:56:24.895Z,15.70
2017-09-24T20:58:53.232Z,15.60
2017-09-24T21:01:21.550Z,15.70
2017-09-24T21:03:50.650Z,15.70
2017-09-24T21:06:19.037Z,15.60
2017-09-24T21:08:47.343Z,15.70
2017-09-24T21:11:15.654Z,15.70
2017-09-24T21:13:43.975Z,15.70
2017-09-24T21:16:12.421Z,15.80
2017-09-24T21:18:40.870Z,15.70
2017-09-24T21:21:09.350Z,15.80
2017-09-24T21:23:38.951Z,15.70
2017-09-24T21:26:07.367Z,15.70
2017-09-24T21:28:36.127Z,15.70
2017-09-24T21:31:04.523Z,15.70
2017-09-24T21:33:32.867Z,15.70
2017-09-24T21:36:02.039Z,15.60
2017-09-24T21:38:30.439Z,15.60
2017-09-24T21:40:58.838Z,15.60
2017-09-24T21:43:27.162Z,15.60
2017-09-24T21:45:55.594Z,15.60
2017-09-24T21:48:24.772Z,15.60
2017-09-24T21:50:53.178Z,15.60
2017-09-24T21:53:21.478Z,15.60
2017-09-24T21:55:49.794Z,15.60
2017-09-24T21:58:18.182Z,15.50
2017-09-24T22:00:46.502Z,15.60
2017-09-24T22:03:14.890Z,15.60
2017-09-24T22:05:43.399Z,15.60
2017-09-24T22:08:11.695Z,15.50
2017-09-24T22:10:40.066Z,15.40
2017-09-24T22:13:08.619Z,15.50
2017-09-24T22:15:37.096Z,15.50
2017-09-24T22:18:07.024Z,15.50
2017-09-24T22:20:35.568Z,15.50
2017-09-24T22:23:04.164Z,15.50
2017-09-24T22:25:33.538Z,15.50
2017-09-24T22:28:03.611Z,15.40
2017-09-24T22:30:32.019Z,15.40
2017-09-24T22:33:00.302Z,15.50
2017-09-24T22:35:28.747Z,15.50
2017-09-24T22:37:57.039Z,15.50
2017-09-24T22:40:25.391Z,15.60
2017-09-24T22:42:54.487Z,15.50
2017-09-24T22:45:23.794Z,15.50
2017-09-24T22:47:52.139Z,15.50
2017-09-24T22:50:21.219Z,15.40
2017-09-24T22:52:49.631Z,15.40
2017-09-24T22:55:18.034Z,15.60
2017-09-24T22:57:46.359Z,15.60
2017-09-24T23:00:14.683Z,15.50
2017-09-24T23:02:43.730Z,15.30
2017-09-24T23:05:12.017Z,15.30
2017-09-24T23:07:40.358Z,15.10
2017-09-24T23:10:08.694Z,15.10
2017-09-24T23:12:37.177Z,15.10
2017-09-24T23:15:06.391Z,15.10
2017-09-24T23:17:36.126Z,15.00
2017-09-24T23:20:04.915Z,15.00
2017-09-24T23:22:33.355Z,15.00
2017-09-24T23:25:03.317Z,14.90
2017-09-24T23:27:31.701Z,14.90
2017-09-24T23:30:00.095Z,14.90
2017-09-24T23:32:28.380Z,15.00
2017-09-24T23:34:56.798Z,15.00
2017-09-24T23:37:25.198Z,15.00
2017-09-24T23:39:53.754Z,15.00
2017-09-24T23:42:22.867Z,15.00
2017-09-24T23:44:51.242Z,14.90
2017-09-24T23:47:19.560Z,14.90
2017-09-24T23:49:47.847Z,14.80
2017-09-24T23:52:16.182Z,14.80
2017-09-24T23:54:45.467Z,14.80
2017-09-24T23:57:13.760Z,14.80
2017-09-24T23:59:42.070Z,14.80
